createdAt,value
2024-03-23T00:00:31.275Z,24.80
2024-03-23T00:02:57.588Z,24.90
2024-03-23T00:05:23.968Z,24.00
2024-03-23T00:07:50.276Z,25.10
2024-03-23T00:10:16.580Z,25.80
2024-03-23T00:12:42.956Z,26.40
2024-03-23T00:15:09.243Z,25.40
2024-03-23T00:17:35.574Z,25.20
2024-03-23T00:20:01.900Z,25.00
2024-03-23T00:22:28.203Z,25.40
2024-03-23T00:24:54.620Z,25.90
2024-03-23T00:27:20.916Z,24.40
2024-03-23T00:29:47.216Z,26.00
2024-03-23T00:32:13.522Z,25.70
2024-03-23T00:34:39.848Z,26.10
2024-03-23T00:37:06.178Z,24.00
2024-03-23T00:39:32.481Z,25.60
2024-03-23T00:42:01.326Z,24.90
2024-03-23T00:44:27.837Z,25.80
2024-03-23T00:46:54.278Z,25.40
2024-03-23T00:49:20.726Z,24.00
2024-03-23T00:51:47.032Z,24.40
2024-03-23T00:54:13.340Z,24.10
2024-03-23T00:56:39.639Z,24.70
2024-03-23T00:59:05.986Z,24.50
2024-03-23T01:01:32.304Z,24.40
2024-03-23T01:03:58.601Z,26.10
2024-03-23T01:06:24.926Z,25.60
2024-03-23T01:08:51.277Z,24.30
2024-03-23T01:11:17.624Z,24.30
2024-03-23T01:13:43.944Z,25.00
2024-03-23T01:16:10.271Z,25.40
2024-03-23T01:18:36.605Z,24.90
2024-03-23T01:21:02.900Z,23.90
2024-03-23T01:23:29.207Z,23.70
2024-03-23T01:25:55.502Z,24.90
2024-03-23T01:28:21.805Z,24.10
2024-03-23T01:30:48.109Z,23.50
2024-03-23T01:33:14.414Z,24.90
2024-03-23T01:35:40.723Z,24.60
2024-03-23T01:38:07.040Z,26.30
2024-03-23T01:40:33.360Z,24.90
2024-03-23T01:42:59.679Z,25.80
2024-03-23T01:45:25.993Z,24.30
2024-03-23T01:47:52.318Z,24.70
2024-03-23T01:50:18.619Z,25.20
2024-03-23T01:52:44.926Z,24.00
2024-03-23T01:55:11.226Z,23.60
2024-03-23T01:57:37.540Z,24.90
2024-03-23T02:00:03.843Z,23.90
2024-03-23T02:02:30.157Z,24.30
2024-03-23T02:04:56.509Z,24.00
2024-03-23T02:07:22.850Z,24.20
2024-03-23T02:09:49.189Z,23.60
2024-03-23T02:12:15.551Z,23.80
2024-03-23T02:14:41.881Z,23.90
2024-03-23T02:17:08.193Z,24.60
2024-03-23T02:19:34.524Z,24.10
2024-03-23T02:22:00.847Z,24.20
2024-03-23T02:24:27.184Z,24.00
2024-03-23T02:26:53.523Z,24.20
2024-03-23T02:29:19.835Z,25.00
2024-03-23T02:31:46.213Z,23.10
2024-03-23T02:34:12.533Z,25.10
2024-03-23T02:36:38.861Z,24.30
2024-03-23T02:39:05.187Z,23.40
2024-03-23T02:41:31.480Z,24.20
2024-03-23T02:43:57.820Z,25.00
2024-03-23T02:46:24.128Z,24.70
2024-03-23T02:48:50.482Z,23.90
2024-03-23T02:51:16.794Z,24.50
2024-03-23T02:53:43.122Z,22.90
2024-03-23T02:56:09.464Z,24.70
2024-03-23T02:58:35.797Z,25.80
2024-03-23T03:01:02.123Z,24.10
2024-03-23T03:03:28.485Z,26.30
2024-03-23T03:05:54.797Z,26.30
2024-03-23T03:08:21.159Z,25.20
2024-03-23T03:10:47.455Z,26.30
2024-03-23T03:13:13.761Z,26.40
2024-03-23T03:15:40.062Z,26.70
2024-03-23T03:18:06.351Z,27.10
2024-03-23T03:20:32.757Z,28.80
2024-03-23T03:22:59.096Z,27.90
2024-03-23T03:25:25.429Z,28.20
2024-03-23T03:27:51.774Z,27.60
2024-03-23T03:30:18.105Z,29.30
2024-03-23T03:32:44.435Z,29.60
2024-03-23T03:35:10.743Z,29.10
2024-03-23T03:37:37.107Z,28.70
2024-03-23T03:40:03.405Z,30.20
2024-03-23T03:42:29.789Z,29.90
2024-03-23T03:44:56.158Z,28.90
2024-03-23T03:47:22.510Z,31.10
2024-03-23T03:49:48.822Z,29.90
2024-03-23T03:52:15.131Z,28.70
2024-03-23T03:54:41.453Z,29.30
2024-03-23T03:57:07.768Z,29.60
2024-03-23T03:59:34.129Z,30.20
2024-03-23T04:02:00.449Z,29.60
2024-03-23T04:04:26.999Z,30.30
2024-03-23T04:06:53.330Z,29.80
2024-03-23T04:09:19.643Z,29.30
2024-03-23T04:11:45.933Z,28.60
2024-03-23T04:14:12.235Z,29.40
2024-03-23T04:16:38.541Z,27.40
2024-03-23T04:19:04.877Z,29.30
2024-03-23T04:21:31.232Z,28.50
2024-03-23T04:23:57.667Z,29.40
2024-03-23T04:26:23.989Z,29.30
2024-03-23T04:28:50.304Z,28.30
2024-03-23T04:31:16.642Z,28.90
2024-03-23T04:33:42.959Z,27.40
2024-03-23T04:36:09.296Z,27.80
2024-03-23T04:38:35.693Z,28.90
2024-03-23T04:41:02.050Z,29.10
2024-03-23T04:43:28.417Z,28.70
2024-03-23T04:45:54.748Z,27.50
2024-03-23T04:48:21.067Z,28.90
2024-03-23T04:50:47.422Z,26.90
2024-03-23T04:53:13.764Z,27.60
2024-03-23T04:55:40.055Z,28.40
2024-03-23T04:58:06.547Z,29.20
2024-03-23T05:00:32.897Z,26.40
2024-03-23T05:02:59.237Z,27.10
2024-03-23T05:05:25.550Z,28.80
2024-03-23T05:07:51.875Z,27.60
2024-03-23T05:10:18.220Z,26.80
2024-03-23T05:12:44.534Z,28.90
2024-03-23T05:15:10.861Z,26.90
2024-03-23T05:17:37.261Z,28.40
2024-03-23T05:20:03.586Z,25.60
2024-03-23T05:22:29.911Z,27.00
2024-03-23T05:24:56.264Z,26.30
2024-03-23T05:27:22.559Z,27.20
2024-03-23T05:29:48.853Z,27.10
2024-03-23T05:32:15.142Z,26.20
2024-03-23T05:34:41.438Z,24.60
2024-03-23T05:37:08.012Z,25.70
2024-03-23T05:39:34.343Z,25.90
2024-03-23T05:42:00.640Z,25.20
2024-03-23T05:44:26.969Z,25.40
2024-03-23T05:46:53.285Z,25.60
2024-03-23T05:49:19.581Z,25.70
2024-03-23T05:51:45.938Z,25.90
2024-03-23T05:54:12.239Z,25.70
2024-03-23T05:56:38.723Z,25.50
2024-03-23T05:59:05.022Z,25.40
2024-03-23T06:01:31.340Z,25.50
2024-03-23T06:03:57.665Z,25.10
2024-03-23T06:06:23.992Z,25.50
2024-03-23T06:08:50.336Z,25.10
2024-03-23T06:11:16.656Z,24.70
2024-03-23T06:13:42.957Z,23.80
2024-03-23T06:16:09.451Z,24.00
2024-03-23T06:18:35.778Z,24.10
2024-03-23T06:21:02.075Z,24.60
2024-03-23T06:23:28.416Z,24.50
2024-03-23T06:25:54.775Z,23.90
2024-03-23T06:28:21.083Z,23.20
2024-03-23T06:30:47.446Z,21.80
2024-03-23T06:33:13.740Z,23.50
2024-03-23T06:35:40.136Z,23.00
2024-03-23T06:38:06.617Z,22.60
2024-03-23T06:40:33.001Z,22.80
2024-03-23T06:42:59.320Z,21.90
2024-03-23T06:45:25.639Z,21.60
2024-03-23T06:47:51.957Z,21.00
2024-03-23T06:50:18.266Z,19.80
2024-03-23T06:52:44.569Z,20.30
2024-03-23T06:55:11.141Z,19.70
2024-03-23T06:57:37.483Z,20.40
2024-03-23T07:00:06.200Z,19.10
2024-03-23T07:02:32.570Z,19.00
2024-03-23T07:04:58.881Z,18.60
2024-03-23T07:07:25.213Z,16.90
2024-03-23T07:09:51.738Z,17.10
2024-03-23T07:12:18.063Z,17.80
2024-03-23T07:14:44.384Z,18.40
2024-03-23T07:17:10.736Z,18.90
2024-03-23T07:19:37.076Z,17.40
2024-03-23T07:22:03.401Z,16.80
2024-03-23T07:24:29.712Z,17.20
2024-03-23T07:26:56.024Z,17.00
2024-03-23T07:29:22.341Z,17.20
2024-03-23T07:31:48.673Z,16.90
2024-03-23T07:34:14.995Z,16.00
2024-03-23T07:36:41.316Z,15.10
2024-03-23T07:39:12.976Z,15.50
2024-03-23T07:41:39.667Z,15.20
2024-03-23T07:44:05.994Z,14.90
2024-03-23T07:46:32.321Z,15.70
2024-03-23T07:48:58.656Z,16.40
2024-03-23T07:51:24.986Z,16.10
2024-03-23T07:53:51.317Z,14.90
2024-03-23T07:56:17.636Z,15.00
2024-03-23T07:58:44.147Z,15.40
2024-03-23T08:01:10.485Z,15.90
2024-03-23T08:03:39.744Z,15.90
2024-03-23T08:06:06.055Z,16.30
2024-03-23T08:08:32.481Z,15.70
2024-03-23T08:10:58.790Z,14.70
2024-03-23T08:13:25.090Z,15.70
2024-03-23T08:15:51.426Z,15.40
2024-03-23T08:18:17.774Z,15.10
2024-03-23T08:20:44.230Z,14.70
2024-03-23T08:23:10.563Z,15.70
2024-03-23T08:25:36.937Z,15.70
2024-03-23T08:28:03.263Z,14.90
2024-03-23T08:30:29.591Z,15.30
2024-03-23T08:32:55.919Z,15.40
2024-03-23T08:35:22.243Z,15.70
2024-03-23T08:37:48.559Z,16.20
2024-03-23T08:40:14.944Z,15.40
2024-03-23T08:42:41.314Z,15.40
2024-03-23T08:45:07.616Z,15.70
2024-03-23T08:47:33.939Z,15.00
2024-03-23T08:50:00.367Z,15.40
2024-03-23T08:52:26.806Z,14.70
2024-03-23T08:54:53.117Z,15.70
2024-03-23T08:57:19.435Z,15.10
2024-03-23T08:59:45.748Z,15.20
2024-03-23T09:02:12.154Z,15.40
2024-03-23T09:04:38.573Z,15.30
2024-03-23T09:07:04.887Z,14.50
2024-03-23T09:09:31.217Z,15.50
2024-03-23T09:11:57.552Z,16.10
2024-03-23T09:14:24.012Z,16.00
2024-03-23T09:16:50.358Z,14.80
2024-03-23T09:19:18.271Z,14.00
2024-03-23T09:21:44.572Z,13.70
2024-03-23T09:24:10.891Z,13.20
2024-03-23T09:26:37.267Z,13.50
2024-03-23T09:29:03.605Z,13.20
2024-03-23T09:31:29.921Z,13.50
2024-03-23T09:33:56.275Z,13.70
2024-03-23T09:36:22.586Z,14.60
2024-03-23T09:38:49.185Z,13.00
2024-03-23T09:41:15.529Z,13.60
2024-03-23T09:43:41.864Z,12.70
2024-03-23T09:46:08.160Z,12.50
2024-03-23T09:48:34.507Z,12.50
2024-03-23T09:51:00.850Z,12.90
2024-03-23T09:53:27.273Z,13.70
2024-03-23T09:55:53.584Z,12.80
2024-03-23T09:58:20.004Z,13.40
2024-03-23T10:00:46.354Z,14.50
2024-03-23T10:03:12.647Z,13.60
2024-03-23T10:05:41.771Z,14.40
2024-03-23T10:08:11.301Z,14.10
2024-03-23T10:10:37.622Z,13.80
2024-03-23T10:13:03.948Z,14.00
2024-03-23T10:15:30.366Z,13.60
2024-03-23T10:17:56.797Z,14.60
2024-03-23T10:20:23.108Z,14.00
2024-03-23T10:22:49.441Z,13.50
2024-03-23T10:25:15.891Z,12.30
2024-03-23T10:27:42.238Z,12.30
2024-03-23T10:30:08.560Z,11.30
2024-03-23T10:32:34.914Z,11.00
2024-03-23T10:35:01.271Z,11.90
2024-03-23T10:37:27.598Z,11.80
2024-03-23T10:39:53.898Z,11.60
2024-03-23T10:42:20.344Z,10.80
2024-03-23T10:44:46.680Z,11.10
2024-03-23T10:47:13.011Z,11.20
2024-03-23T10:49:39.351Z,10.60
2024-03-23T10:52:05.732Z,9.70
2024-03-23T10:54:32.120Z,9.90
2024-03-23T10:56:58.491Z,10.40
2024-03-23T10:59:24.823Z,10.70
2024-03-23T11:01:51.196Z,10.00
2024-03-23T11:04:17.522Z,11.00
2024-03-23T11:06:43.904Z,10.90
2024-03-23T11:09:10.241Z,11.40
2024-03-23T11:11:36.571Z,11.20
2024-03-23T11:14:02.864Z,10.80
2024-03-23T11:16:29.189Z,11.20
2024-03-23T11:18:55.510Z,10.60
2024-03-23T11:21:21.907Z,11.50
2024-03-23T11:23:48.227Z,11.20
2024-03-23T11:26:14.560Z,10.40
2024-03-23T11:28:40.896Z,10.30
2024-03-23T11:31:07.218Z,10.60
2024-03-23T11:33:33.557Z,11.40
2024-03-23T11:36:00.104Z,11.50
2024-03-23T11:38:26.422Z,11.80
2024-03-23T11:40:52.984Z,11.70
2024-03-23T11:43:19.294Z,10.10
2024-03-23T11:45:45.645Z,10.60
2024-03-23T11:48:11.985Z,10.80
2024-03-23T11:50:38.299Z,10.10
2024-03-23T11:53:04.683Z,9.90
2024-03-23T11:55:30.984Z,9.90
2024-03-23T11:57:57.320Z,10.00
2024-03-23T12:00:23.657Z,10.00
2024-03-23T12:02:49.961Z,10.00
2024-03-23T12:05:16.378Z,10.50
2024-03-23T12:07:42.917Z,9.90
2024-03-23T12:10:09.214Z,10.10
2024-03-23T12:12:35.524Z,10.00
2024-03-23T12:15:01.890Z,9.30
2024-03-23T12:17:28.229Z,10.70
2024-03-23T12:19:54.531Z,10.50
2024-03-23T12:22:20.853Z,10.50
2024-03-23T12:24:47.164Z,10.00
2024-03-23T12:27:13.519Z,10.20
2024-03-23T12:29:39.869Z,9.90
2024-03-23T12:32:06.279Z,10.50
2024-03-23T12:34:32.616Z,10.40
2024-03-23T12:36:58.924Z,9.70
2024-03-23T12:39:25.225Z,10.00
2024-03-23T12:41:51.555Z,10.30
2024-03-23T12:44:18.837Z,10.20
2024-03-23T12:46:45.318Z,10.10
2024-03-23T12:49:14.680Z,10.50
2024-03-23T12:51:40.995Z,11.10
2024-03-23T12:54:07.500Z,10.60
2024-03-23T12:56:33.933Z,10.50
2024-03-23T12:59:00.239Z,10.10
2024-03-23T13:01:26.666Z,9.70
2024-03-23T13:03:52.982Z,10.00
2024-03-23T13:06:19.276Z,9.10
2024-03-23T13:08:45.595Z,9.60
2024-03-23T13:11:11.885Z,8.90
2024-03-23T13:13:38.174Z,8.80
2024-03-23T13:16:04.479Z,7.90
2024-03-23T13:18:30.783Z,9.60
2024-03-23T13:20:57.103Z,9.20
2024-03-23T13:23:23.415Z,8.70
2024-03-23T13:25:49.712Z,8.40
2024-03-23T13:28:16.048Z,8.20
2024-03-23T13:30:42.425Z,8.40
2024-03-23T13:33:08.762Z,9.10
2024-03-23T13:35:35.081Z,8.90
2024-03-23T13:38:01.415Z,8.70
2024-03-23T13:40:27.751Z,8.40
2024-03-23T13:42:54.078Z,8.90
2024-03-23T13:45:20.399Z,8.70
2024-03-23T13:47:46.784Z,8.50
2024-03-23T13:50:13.098Z,9.00
2024-03-23T13:52:39.407Z,8.70
2024-03-23T13:55:05.729Z,8.80
2024-03-23T13:57:32.054Z,8.90
2024-03-23T13:59:58.520Z,8.00
2024-03-23T14:02:24.823Z,8.40
2024-03-23T14:04:51.169Z,7.80
2024-03-23T14:07:17.493Z,7.70
2024-03-23T14:09:43.827Z,8.30
2024-03-23T14:12:10.145Z,7.40
2024-03-23T14:14:36.474Z,7.30
2024-03-23T14:17:02.809Z,7.60
2024-03-23T14:19:29.317Z,9.40
2024-03-23T14:21:55.624Z,8.00
2024-03-23T14:24:21.939Z,8.40
2024-03-23T14:26:48.280Z,8.20
2024-03-23T14:29:14.612Z,15.70
2024-03-23T14:31:41.068Z,8.90
2024-03-23T14:34:07.384Z,33.60
2024-03-23T14:36:33.694Z,25.90
2024-03-23T14:39:00.207Z,44.90
2024-03-23T14:41:26.505Z,61.70
2024-03-23T14:43:52.907Z,6.70
2024-03-23T14:46:19.218Z,6.90
2024-03-23T14:48:45.529Z,6.50
2024-03-23T14:51:11.869Z,6.50
2024-03-23T14:53:38.178Z,6.80
2024-03-23T14:56:04.513Z,6.60
2024-03-23T14:58:31.015Z,7.90
2024-03-23T15:00:57.350Z,5.50
2024-03-23T15:03:23.670Z,11.80
2024-03-23T15:05:50.015Z,7.40
2024-03-23T15:08:16.386Z,8.20
2024-03-23T15:10:42.683Z,7.90
2024-03-23T15:13:08.995Z,7.90
2024-03-23T15:15:35.306Z,7.80
2024-03-23T15:18:01.932Z,8.10
2024-03-23T15:20:28.235Z,7.80
2024-03-23T15:22:54.541Z,7.70
2024-03-23T15:25:20.863Z,8.30
2024-03-23T15:27:49.570Z,8.30
2024-03-23T15:30:17.945Z,8.50
2024-03-23T15:32:44.306Z,8.60
2024-03-23T15:35:10.596Z,8.40
2024-03-23T15:37:36.911Z,8.20
2024-03-23T15:40:03.221Z,7.90
2024-03-23T15:42:29.570Z,7.50
2024-03-23T15:44:55.889Z,7.80
2024-03-23T15:47:22.203Z,8.30
2024-03-23T15:49:48.533Z,8.20
2024-03-23T15:52:14.861Z,7.90
2024-03-23T15:54:41.157Z,8.30
2024-03-23T15:57:07.469Z,8.00
2024-03-23T15:59:33.922Z,8.00
2024-03-23T16:02:00.236Z,8.60
2024-03-23T16:04:26.563Z,8.30
2024-03-23T16:06:52.862Z,7.80
2024-03-23T16:09:19.194Z,8.00
2024-03-23T16:11:45.538Z,8.40
2024-03-23T16:14:11.849Z,9.30
2024-03-23T16:16:38.200Z,8.80
2024-03-23T16:19:04.514Z,8.00
2024-03-23T16:21:31.048Z,9.20
2024-03-23T16:23:57.376Z,8.10
2024-03-23T16:26:23.705Z,8.20
2024-03-23T16:28:50.050Z,8.60
2024-03-23T16:31:16.377Z,9.30
2024-03-23T16:33:42.717Z,8.00
2024-03-23T16:36:09.085Z,8.50
2024-03-23T16:38:35.599Z,8.00
2024-03-23T16:41:01.958Z,8.50
2024-03-23T16:43:28.277Z,8.10
2024-03-23T16:45:54.600Z,8.60
2024-03-23T16:48:20.917Z,8.10
2024-03-23T16:50:47.229Z,8.40
2024-03-23T16:53:13.538Z,8.40
2024-03-23T16:55:39.883Z,8.60
2024-03-23T16:58:06.366Z,10.00
2024-03-23T17:00:32.732Z,8.90
2024-03-23T17:02:59.159Z,9.80
2024-03-23T17:05:25.459Z,9.70
2024-03-23T17:07:51.773Z,10.00
2024-03-23T17:10:18.089Z,10.00
2024-03-23T17:12:44.448Z,10.60
2024-03-23T17:15:13.026Z,10.80
2024-03-23T17:17:41.045Z,11.90
2024-03-23T17:20:07.545Z,12.30
2024-03-23T17:22:33.862Z,13.40
2024-03-23T17:25:00.265Z,12.20
2024-03-23T17:27:26.668Z,11.00
2024-03-23T17:29:53.060Z,9.20
2024-03-23T17:32:19.366Z,7.40
2024-03-23T17:34:45.669Z,7.10
2024-03-23T17:37:12.003Z,7.40
2024-03-23T17:39:38.623Z,4.60
2024-03-23T17:42:04.947Z,3.50
2024-03-23T17:44:31.272Z,4.30
2024-03-23T17:46:57.603Z,4.20
2024-03-23T17:49:23.908Z,3.50
2024-03-23T17:51:50.289Z,3.90
2024-03-23T17:54:16.612Z,3.60
2024-03-23T17:56:42.928Z,3.40
2024-03-23T17:59:09.392Z,2.80
2024-03-23T18:01:35.724Z,3.30
2024-03-23T18:04:02.047Z,3.20
2024-03-23T18:06:28.396Z,2.90
2024-03-23T18:08:54.698Z,3.60
2024-03-23T18:11:20.989Z,3.10
2024-03-23T18:13:47.306Z,3.30
2024-03-23T18:16:16.220Z,3.90
2024-03-23T18:18:44.422Z,4.40
2024-03-23T18:21:10.728Z,5.90
2024-03-23T18:23:39.032Z,6.40
2024-03-23T18:26:05.512Z,5.60
2024-03-23T18:28:31.827Z,5.40
2024-03-23T18:30:58.143Z,6.30
2024-03-23T18:33:24.565Z,5.80
2024-03-23T18:35:50.897Z,5.60
2024-03-23T18:38:17.195Z,5.50
2024-03-23T18:40:43.510Z,5.60
2024-03-23T18:43:09.883Z,5.20
2024-03-23T18:45:36.214Z,5.00
2024-03-23T18:48:05.018Z,6.00
2024-03-23T18:50:31.719Z,6.40
2024-03-23T18:52:58.032Z,7.00
2024-03-23T18:55:24.589Z,6.50
2024-03-23T18:57:50.941Z,6.70
2024-03-23T19:00:17.244Z,6.10
2024-03-23T19:02:43.556Z,5.60
2024-03-23T19:05:09.962Z,5.30
2024-03-23T19:07:36.275Z,5.80
2024-03-23T19:10:02.925Z,5.80
2024-03-23T19:12:29.295Z,4.60
2024-03-23T19:14:55.654Z,5.20
2024-03-23T19:17:22.011Z,5.00
2024-03-23T19:19:49.147Z,5.50
2024-03-23T19:22:15.471Z,5.10
2024-03-23T19:24:42.011Z,5.00
2024-03-23T19:27:08.316Z,4.90
2024-03-23T19:29:34.624Z,5.50
2024-03-23T19:32:00.967Z,4.70
2024-03-23T19:34:27.278Z,5.90
2024-03-23T19:36:53.605Z,5.20
2024-03-23T19:39:19.912Z,5.00
2024-03-23T19:41:46.218Z,5.10
2024-03-23T19:44:12.712Z,5.60
2024-03-23T19:46:39.083Z,4.90
2024-03-23T19:49:05.413Z,6.00
2024-03-23T19:51:31.728Z,5.80
2024-03-23T19:53:58.567Z,5.90
2024-03-23T19:56:26.089Z,5.90
2024-03-23T19:58:52.439Z,5.80
2024-03-23T20:01:18.779Z,6.00
2024-03-23T20:03:45.083Z,5.90
2024-03-23T20:06:11.437Z,5.10
2024-03-23T20:08:37.751Z,5.00
2024-03-23T20:11:04.104Z,37.70
2024-03-23T20:13:30.402Z,5.10
2024-03-23T20:15:56.714Z,4.40
2024-03-23T20:18:23.069Z,3.90
2024-03-23T20:20:49.385Z,2.80
2024-03-23T20:23:15.707Z,2.90
2024-03-23T20:25:42.020Z,2.10
2024-03-23T20:28:08.331Z,2.90
2024-03-23T20:30:34.646Z,2.70
2024-03-23T20:33:00.951Z,2.70
2024-03-23T20:35:27.272Z,2.70
2024-03-23T20:37:53.557Z,2.50
2024-03-23T20:40:19.879Z,2.90
2024-03-23T20:42:46.205Z,3.30
2024-03-23T20:45:12.523Z,3.20
2024-03-23T20:47:38.830Z,3.60
2024-03-23T20:50:05.122Z,3.90
2024-03-23T20:52:31.436Z,3.60
2024-03-23T20:54:57.770Z,3.30
2024-03-23T20:57:24.105Z,3.70
2024-03-23T20:59:50.431Z,4.10
2024-03-23T21:02:16.819Z,4.20
2024-03-23T21:04:43.121Z,4.40
2024-03-23T21:07:09.443Z,4.20
2024-03-23T21:09:37.081Z,3.50
2024-03-23T21:12:04.562Z,3.20
2024-03-23T21:14:30.896Z,3.40
2024-03-23T21:16:57.184Z,4.50
2024-03-23T21:19:23.499Z,3.60
2024-03-23T21:21:49.807Z,3.70
2024-03-23T21:24:16.167Z,2.80
2024-03-23T21:26:42.501Z,2.90
2024-03-23T21:29:08.810Z,2.10
2024-03-23T21:31:35.145Z,1.90
2024-03-23T21:34:01.509Z,1.80
2024-03-23T21:36:27.812Z,1.40
2024-03-23T21:38:54.130Z,1.60
2024-03-23T21:41:20.454Z,1.80
2024-03-23T21:43:46.845Z,1.50
2024-03-23T21:46:13.293Z,1.50
2024-03-23T21:48:39.614Z,1.30
2024-03-23T21:51:06.003Z,1.60
2024-03-23T21:53:32.320Z,1.70
2024-03-23T21:55:58.641Z,1.60
2024-03-23T21:58:24.971Z,1.40
2024-03-23T22:00:51.299Z,1.70
2024-03-23T22:03:17.654Z,1.60
2024-03-23T22:05:43.998Z,2.10
2024-03-23T22:08:10.328Z,1.60
2024-03-23T22:10:39.604Z,1.80
2024-03-23T22:13:07.151Z,1.80
2024-03-23T22:15:33.498Z,1.70
2024-03-23T22:17:59.818Z,2.00
2024-03-23T22:20:26.124Z,1.80
2024-03-23T22:22:52.448Z,2.20
2024-03-23T22:25:18.871Z,2.00
2024-03-23T22:27:45.186Z,1.80
2024-03-23T22:30:11.494Z,2.10
2024-03-23T22:32:37.794Z,2.20
2024-03-23T22:35:04.108Z,1.80
2024-03-23T22:37:30.414Z,1.90
2024-03-23T22:39:56.736Z,1.60
2024-03-23T22:42:23.044Z,1.90
2024-03-23T22:44:49.332Z,2.00
2024-03-23T22:47:15.643Z,1.80
2024-03-23T22:49:41.954Z,1.70
2024-03-23T22:52:08.290Z,2.30
2024-03-23T22:54:34.595Z,2.20
2024-03-23T22:57:00.891Z,2.50
2024-03-23T22:59:27.219Z,2.40
2024-03-23T23:01:53.520Z,2.20
2024-03-23T23:04:19.891Z,2.50
2024-03-23T23:06:46.200Z,2.30
2024-03-23T23:09:12.502Z,2.10
2024-03-23T23:11:38.816Z,2.40
2024-03-23T23:14:05.132Z,2.60
2024-03-23T23:16:31.482Z,2.60
2024-03-23T23:18:57.859Z,2.40
2024-03-23T23:21:24.182Z,2.30
2024-03-23T23:23:50.830Z,3.00
2024-03-23T23:26:17.144Z,2.70
2024-03-23T23:28:43.439Z,2.50
2024-03-23T23:31:09.795Z,3.40
2024-03-23T23:33:36.122Z,3.00
2024-03-23T23:36:02.457Z,2.80
2024-03-23T23:38:28.794Z,3.00
2024-03-23T23:40:55.140Z,3.10
2024-03-23T23:43:21.586Z,2.70
2024-03-23T23:45:47.892Z,3.40
2024-03-23T23:48:14.233Z,2.90
2024-03-23T23:50:41.329Z,3.30
2024-03-23T23:53:07.754Z,3.80
2024-03-23T23:55:34.086Z,3.70
2024-03-23T23:58:00.417Z,3.20
